Grangeville, ID (83530)

7:25 PM PDT on March 25, 2017 (GMT -0700)
Elk St. | | Change Station

Elev 3460 ft 45.92 °N, 116.13 °W | Updated 0 second ago

Rain
Rain
37.0 °F
Feels Like 31 °F
N
8.0
Wind Variable Wind from SE
Gusts 9.0 mph

Today
High -- | Low -- °F
--% Chance of Precip.
Yesterday
High -- | Low -- °F
Precip. -- in
Pressure 30.04 in
Visibility 5.0 miles
Clouds Mostly Cloudy 1600 ft
Overcast 2100 ft
Windchill 31 °F
Dew Point 35 °F
Humidity 93%
Rainfall 0.15 in
Snow Depth Not available.
6:37 AM 7:04 PM
Waning Crescent, 5% visible
METAR KGIC 260215Z AUTO 14008KT 5SM BKN016 OVC021 02/02 A3004 RMK AO1 P0001
Pressure 30.04 in
Visibility 5.0 miles
Clouds Mostly Cloudy 1600 ft
Overcast 2100 ft
Windchill 31 °F
Dew Point 35 °F
Humidity 93%
Rainfall 0.15 in
Snow Depth Not available.
6:37 AM 7:04 PM
Waning Crescent, 5% visible
METAR KGIC 260215Z AUTO 14008KT 5SM BKN016 OVC021 02/02 A3004 RMK AO1 P0001

Get Severe Weather Alerts

Thanks for signing up!

Be on the lookout for a verification email in your inbox.

You'll start receiving the daily forecast at 8 AM.

×

10-Day Weather Forecast

Almanac

Astronomy

Mar. 25, 2017 Rise Set
Actual Time
Civil Twilight
Nautical Twilight
Astronomical Twilight
Moon
Length of Visible Light
Length of Day
Tomorrow will be .
, % of the Moon is Illuminated

Today's Extremes

State Highs State Lows

Community

WunderPhotos

Upload Photos

1,962,540 photos uploaded!

WunderBlog® & News

Nearby

Air Quality

  Air Quality AQ Index Pollutant
Not available.

Snow Depth

Station Depth Elevation

Earthquake Activity

City Distance Mag. Time & Date
Minimum magnitude displayed is 2.5.

Earthquake Activity

City Distance Mag. Time & Date
Minimum magnitude displayed is 2.5.

Coastal Water Temperatures

Place Temperature

Stations

Nearby Weather Stations

Station Location Temp. Windchill Dew Point Humidity Wind Precip. Elev Updated Type
                   

Watches & Warnings

There are currently no watches in effect.